Time;durP1;ratioP1;P1;durP2;ratioP2;P2;SDS_P1;SDS_P2;PMS_P1;PMS_P2;Temp;Humidity;BMP_temperature;BMP_pressure;BME280_temperature;BME280_humidity;BME280_pressure;Samples;Min_cycle;Max_cycle;Signal;HPM_P1;HPM_P2
2023/08/05 00:02:05;;;;;;;1.95;0.80;;;;;;;28.08;50.41;100125.63;5066383;28;20055;-55
2023/08/05 00:04:33;;;;;;;2.92;1.25;;;;;;;28.08;49.96;100125.63;5064385;28;20508;-56
2023/08/05 00:07:00;;;;;;;2.10;0.80;;;;;;;28.09;50.42;100121.00;5067381;28;20048;-59
2023/08/05 00:09:27;;;;;;;1.85;0.80;;;;;;;28.08;49.97;100116.63;5067693;28;20052;-59
2023/08/05 00:11:55;;;;;;;1.90;0.90;;;;;;;28.08;49.94;100117.44;5066746;28;20041;-59
2023/08/05 00:14:22;;;;;;;2.60;1.08;;;;;;;28.09;50.09;100112.84;5064476;28;20048;-59
2023/08/05 00:16:49;;;;;;;2.13;1.00;;;;;;;28.08;49.89;100109.28;5067063;28;20534;-58
2023/08/05 00:19:17;;;;;;;1.85;0.93;;;;;;;28.07;49.90;100102.16;5067484;28;20107;-59
2023/08/05 00:21:45;;;;;;;1.85;0.93;;;;;;;28.08;50.29;100100.28;5066100;28;20408;-59
2023/08/05 00:24:12;;;;;;;2.20;1.00;;;;;;;28.07;49.85;100099.44;5064252;28;20493;-59
2023/08/05 00:26:39;;;;;;;1.45;0.70;;;;;;;28.08;49.74;100092.13;5067428;28;20044;-59
2023/08/05 00:29:07;;;;;;;1.88;1.00;;;;;;;28.06;50.24;100086.88;5067622;28;20067;-56
2023/08/05 00:31:34;;;;;;;1.90;1.00;;;;;;;28.07;49.82;100087.72;5066006;28;20044;-56
2023/08/05 00:34:02;;;;;;;2.10;0.88;;;;;;;28.07;50.25;100087.72;5064040;28;20049;-56
2023/08/05 00:36:29;;;;;;;1.75;0.90;;;;;;;28.06;49.85;100077.88;5065700;28;20064;-56
2023/08/05 00:38:56;;;;;;;2.50;1.13;;;;;;;28.06;50.24;100072.44;5067560;28;20053;-56
2023/08/05 00:41:24;;;;;;;2.15;1.02;;;;;;;28.07;49.97;100074.09;5065015;28;20056;-55
2023/08/05 00:43:51;;;;;;;2.17;1.05;;;;;;;28.06;50.12;100062.38;5064309;28;20037;-54
2023/08/05 00:46:22;;;;;;;1.83;0.95;;;;;;;28.06;50.12;100059.66;5066673;28;20056;-56
2023/08/05 00:48:52;;;;;;;1.53;0.83;;;;;;;28.05;50.14;100060.72;5067774;28;20495;-59
2023/08/05 00:51:20;;;;;;;1.77;0.90;;;;;;;28.05;49.82;100058.00;5065836;28;20056;-59
2023/08/05 00:53:48;;;;;;;1.88;0.90;;;;;;;28.05;49.88;100057.16;5063590;28;20041;-59
2023/08/05 00:56:17;;;;;;;2.40;1.10;;;;;;;28.05;50.00;100052.56;5065969;28;20052;-59
2023/08/05 00:58:44;;;;;;;2.10;1.00;;;;;;;28.04;49.85;100050.88;5067407;28;20476;-59
2023/08/05 01:01:12;;;;;;;2.13;1.13;;;;;;;28.05;49.80;100051.72;5065690;28;20051;-59
2023/08/05 01:03:39;;;;;;;1.67;0.93;;;;;;;28.04;49.78;100048.16;5063228;28;20047;-59
2023/08/05 01:06:07;;;;;;;2.15;1.05;;;;;;;28.04;50.10;100045.44;5067033;28;20076;-59
2023/08/05 01:08:35;;;;;;;1.27;0.70;;;;;;;28.04;50.06;100045.44;5067280;28;20049;-59
2023/08/05 01:11:03;;;;;;;2.20;1.10;;;;;;;28.04;49.79;100048.16;5065437;28;20045;-59
2023/08/05 01:13:31;;;;;;;1.80;0.90;;;;;;;28.05;49.77;100040.84;5062589;28;20413;-59
2023/08/05 01:15:58;;;;;;;1.67;0.95;;;;;;;28.04;50.00;100052.78;5067552;28;20063;-59
2023/08/05 01:18:29;;;;;;;2.60;1.20;;;;;;;28.04;50.07;100050.06;5067104;28;20056;-59
2023/08/05 01:20:59;;;;;;;2.10;0.90;;;;;;;28.03;49.68;100046.47;5065365;28;20044;-59
2023/08/05 01:23:46;;;;;;;2.35;1.15;;;;;;;28.02;49.54;100052.97;5064161;28;20053;-59
2023/08/05 01:26:14;;;;;;;2.30;1.00;;;;;;;28.02;49.72;100042.06;5065656;28;20063;-59
2023/08/05 01:28:42;;;;;;;2.40;1.08;;;;;;;28.02;49.59;100044.78;5065474;28;20071;-59
2023/08/05 01:31:10;;;;;;;1.50;0.90;;;;;;;28.03;49.88;100040.19;5063423;28;20053;-59
2023/08/05 01:33:38;;;;;;;2.17;1.10;;;;;;;28.02;49.92;100046.69;5066195;28;20523;-59
2023/08/05 01:36:05;;;;;;;1.40;0.75;;;;;;;28.01;49.89;100045.84;5073751;28;20055;-59
2023/08/05 01:38:33;;;;;;;1.85;0.93;;;;;;;28.02;49.91;100050.25;5069048;28;20044;-56
2023/08/05 01:41:01;;;;;;;1.65;0.65;;;;;;;28.02;49.81;100050.25;5068683;28;20056;-56
2023/08/05 01:43:28;;;;;;;1.95;1.02;;;;;;;28.01;49.57;100045.84;5065623;28;20488;-56
2023/08/05 01:45:55;;;;;;;3.10;1.00;;;;;;;28.02;49.61;100044.78;5070524;28;20048;-56
2023/08/05 01:48:23;;;;;;;2.08;1.10;;;;;;;28.01;49.51;100034.13;5069034;28;20049;-56
2023/08/05 01:50:50;;;;;;;2.95;1.30;;;;;;;28.00;49.56;100033.31;5066584;28;20465;-56
2023/08/05 01:53:17;;;;;;;2.28;1.00;;;;;;;28.00;49.96;100036.03;5073110;28;20052;-56
2023/08/05 01:55:45;;;;;;;2.25;1.13;;;;;;;28.01;49.69;100037.69;5070384;28;20044;-56
2023/08/05 01:58:12;;;;;;;2.80;1.17;;;;;;;28.00;49.62;100036.03;5067337;28;20049;-59
2023/08/05 02:00:39;;;;;;;1.40;0.73;;;;;;;28.01;50.07;100045.03;5065063;28;20061;-56
2023/08/05 02:03:07;;;;;;;1.55;0.90;;;;;;;28.00;49.61;100037.91;5065712;28;20044;-56
2023/08/05 02:05:34;;;;;;;1.70;0.90;;;;;;;28.00;49.96;100027.88;5068348;28;20049;-56
2023/08/05 02:08:02;;;;;;;2.22;0.90;;;;;;;28.00;49.83;100027.03;5068646;28;20053;-59
2023/08/05 02:10:29;;;;;;;1.95;1.02;;;;;;;27.99;49.63;100028.88;5068137;28;20071;-59
2023/08/05 02:12:56;;;;;;;1.98;0.80;;;;;;;27.99;49.79;100023.44;5059493;28;20049;-59
2023/08/05 02:15:26;;;;;;;1.98;1.00;;;;;;;28.00;49.82;100027.88;5066620;28;20040;-59
2023/08/05 02:17:53;;;;;;;2.05;0.95;;;;;;;27.99;49.73;100026.16;5068389;28;20051;-59
2023/08/05 02:20:21;;;;;;;2.33;1.15;;;;;;;27.99;49.97;100025.31;5064595;28;20075;-59
2023/08/05 02:22:48;;;;;;;2.42;0.93;;;;;;;27.99;49.71;100026.16;5064797;28;20396;-59
2023/08/05 02:25:15;;;;;;;2.00;0.90;;;;;;;27.99;49.72;100026.16;5068301;28;20393;-59
2023/08/05 02:27:43;;;;;;;2.50;1.20;;;;;;;27.98;49.68;100020.94;5068061;28;20048;-59
2023/08/05 02:30:10;;;;;;;1.83;0.80;;;;;;;27.99;50.00;100019.88;5065903;28;20500;-59
2023/08/05 02:32:37;;;;;;;2.95;1.00;;;;;;;27.98;49.71;100016.34;5064507;28;20071;-59
2023/08/05 02:35:05;;;;;;;2.10;0.98;;;;;;;27.97;49.96;100014.66;5069199;28;20052;-59
2023/08/05 02:37:35;;;;;;;3.03;1.20;;;;;;;27.98;50.04;100018.22;5067966;28;20393;-56
2023/08/05 02:40:03;;;;;;;1.90;1.08;;;;;;;27.98;49.66;100023.66;5065609;28;20044;-56
2023/08/05 02:42:31;;;;;;;1.92;1.00;;;;;;;27.97;49.85;100022.81;5067928;28;20500;-55
2023/08/05 02:44:59;;;;;;;1.98;0.90;;;;;;;27.97;50.09;100014.66;5069699;28;20476;-55
2023/08/05 02:47:26;;;;;;;2.20;1.00;;;;;;;27.98;49.78;100012.78;5067792;28;20052;-59
2023/08/05 02:49:54;;;;;;;1.58;0.80;;;;;;;27.98;50.01;100007.34;5065950;28;20060;-59
2023/08/05 02:52:21;;;;;;;1.73;0.93;;;;;;;27.97;50.15;100001.06;5068014;28;20052;-59
2023/08/05 02:54:48;;;;;;;2.33;1.30;;;;;;;27.96;49.71;100001.28;5069138;28;20028;-59
2023/08/05 02:57:16;;;;;;;3.25;1.13;;;;;;;27.96;49.97;100001.28;5083178;28;20048;-59
2023/08/05 02:59:43;;;;;;;1.95;0.98;;;;;;;27.96;49.80;100006.72;5065508;28;20053;-59
2023/08/05 03:02:10;;;;;;;2.15;1.13;;;;;;;27.96;50.17;100006.72;5069299;28;20495;-59
2023/08/05 03:04:38;;;;;;;1.95;0.95;;;;;;;27.95;50.11;100014.03;5067796;28;20072;-59
2023/08/05 03:07:05;;;;;;;1.58;0.80;;;;;;;27.96;49.78;100010.28;5065437;28;20405;-56
2023/08/05 03:09:32;;;;;;;1.67;0.90;;;;;;;27.95;50.31;100008.59;5063536;28;20053;-55
2023/08/05 03:12:01;;;;;;;3.25;1.38;;;;;;;27.95;50.02;100007.75;5067674;28;20053;-56
2023/08/05 03:14:28;;;;;;;1.70;0.82;;;;;;;27.95;49.96;100008.59;5067581;28;20052;-56
2023/08/05 03:16:56;;;;;;;2.10;0.93;;;;;;;27.94;50.07;100006.91;5067184;28;20417;-55
2023/08/05 03:19:23;;;;;;;1.95;1.05;;;;;;;27.95;50.16;100003.13;5064094;28;20420;-55
2023/08/05 03:21:52;;;;;;;2.22;0.95;;;;;;;27.95;50.10;100005.88;5067414;28;20055;-56
2023/08/05 03:24:20;;;;;;;1.75;0.93;;;;;;;27.95;50.10;100011.31;5065560;28;20053;-56
2023/08/05 03:26:51;;;;;;;3.47;0.98;;;;;;;27.95;50.15;100016.75;5055896;28;20061;-59
2023/08/05 03:29:19;;;;;;;2.00;0.95;;;;;;;27.95;50.23;100014.03;5068328;28;20056;-59
2023/08/05 03:31:48;;;;;;;2.75;0.95;;;;;;;27.95;50.14;100008.59;5066626;28;20052;-59
2023/08/05 03:34:18;;;;;;;1.88;0.93;;;;;;;27.93;50.11;100005.25;5065141;28;20053;-59
2023/08/05 03:36:46;;;;;;;2.03;0.98;;;;;;;27.94;50.31;100012.34;5069405;28;20044;-56
2023/08/05 03:39:14;;;;;;;2.72;1.00;;;;;;;27.94;50.22;100023.25;5065217;28;20053;-59
2023/08/05 03:41:44;;;;;;;1.67;0.95;;;;;;;27.94;49.90;100012.34;5068121;28;20040;-59
2023/08/05 03:44:12;;;;;;;2.17;1.15;;;;;;;27.93;50.13;100015.28;5066640;28;20067;-59
2023/08/05 03:46:40;;;;;;;2.35;0.98;;;;;;;27.94;50.14;100016.97;5066016;28;20519;-56
2023/08/05 03:49:07;;;;;;;1.90;1.05;;;;;;;27.93;50.27;100016.13;5066413;28;20052;-56
2023/08/05 03:51:34;;;;;;;2.03;0.90;;;;;;;27.93;50.16;100024.28;5066294;28;20056;-56
2023/08/05 03:54:05;;;;;;;2.17;1.00;;;;;;;27.92;50.33;100021.78;5064720;28;20048;-56
2023/08/05 03:56:33;;;;;;;1.80;0.90;;;;;;;27.92;50.04;100024.50;5063392;28;20053;-56
2023/08/05 03:59:02;;;;;;;2.30;1.10;;;;;;;27.91;50.36;100029.09;5065975;28;20523;-56
2023/08/05 04:01:32;;;;;;;1.73;0.90;;;;;;;27.91;49.93;100026.38;5066886;28;20052;-56
2023/08/05 04:04:00;;;;;;;2.10;1.10;;;;;;;27.91;50.16;100029.09;5065269;28;20052;-56
2023/08/05 04:06:28;;;;;;;2.55;1.13;;;;;;;27.92;49.91;100033.50;5064463;28;20052;-56
2023/08/05 04:08:56;;;;;;;2.17;0.90;;;;;;;27.93;50.16;100028.91;5066262;28;20053;-59
2023/08/05 04:11:23;;;;;;;1.90;1.00;;;;;;;27.92;50.23;100021.78;5071167;28;20047;-59
2023/08/05 04:13:52;;;;;;;2.08;1.00;;;;;;;27.92;50.10;100013.63;5065152;28;20061;-59
2023/08/05 04:16:21;;;;;;;2.00;0.93;;;;;;;27.92;50.08;100021.78;5062935;28;20049;-59
2023/08/05 04:18:49;;;;;;;2.30;0.95;;;;;;;27.91;49.83;100022.81;5068078;28;20053;-59
2023/08/05 04:21:16;;;;;;;1.80;0.90;;;;;;;27.91;50.10;100011.94;5067535;28;20051;-59
2023/08/05 04:23:46;;;;;;;2.03;1.00;;;;;;;27.91;50.07;100023.66;5064722;28;20053;-59
2023/08/05 04:26:14;;;;;;;2.30;1.10;;;;;;;27.89;49.75;100020.31;5063894;28;20048;-59
2023/08/05 04:28:41;;;;;;;1.77;0.82;;;;;;;27.90;50.06;100021.97;5067605;28;20044;-56
2023/08/05 04:31:09;;;;;;;2.80;1.23;;;;;;;27.90;49.71;100027.41;5067515;28;20055;-56
2023/08/05 04:33:36;;;;;;;2.97;1.13;;;;;;;27.90;49.70;100032.84;5064980;28;20044;-56
2023/08/05 04:36:04;;;;;;;2.47;1.17;;;;;;;27.91;50.02;100025.53;5063690;28;20064;-56
2023/08/05 04:38:33;;;;;;;2.38;1.02;;;;;;;27.90;49.92;100021.97;5067834;28;20048;-56
2023/08/05 04:41:00;;;;;;;1.80;0.80;;;;;;;27.90;49.53;100032.84;5068475;28;20048;-56
2023/08/05 04:43:27;;;;;;;1.67;0.82;;;;;;;27.90;49.51;100026.59;5065887;28;20063;-56
2023/08/05 04:45:55;;;;;;;2.28;0.77;;;;;;;27.91;49.54;100028.25;5063832;28;20108;-56
2023/08/05 04:48:22;;;;;;;2.60;1.00;;;;;;;27.89;49.49;100027.63;5067557;28;20051;-59
2023/08/05 04:50:49;;;;;;;2.78;1.17;;;;;;;27.90;49.52;100021.16;5067352;28;20048;-59
2023/08/05 04:53:17;;;;;;;2.05;0.95;;;;;;;27.89;49.68;100033.91;5065654;28;20060;-59
2023/08/05 04:55:45;;;;;;;2.20;1.08;;;;;;;27.89;49.81;100033.06;5063844;28;20041;-59
2023/08/05 04:58:12;;;;;;;2.20;0.85;;;;;;;27.89;49.65;100038.53;5067706;28;20056;-59
2023/08/05 05:00:39;;;;;;;2.25;0.98;;;;;;;27.88;49.38;100034.97;5067178;28;20055;-59
2023/08/05 05:03:07;;;;;;;1.90;0.95;;;;;;;27.87;49.68;100027.00;5065382;28;20049;-59
2023/08/05 05:05:35;;;;;;;1.90;1.00;;;;;;;27.87;49.29;100033.28;5064054;28;20405;-59
2023/08/05 05:08:03;;;;;;;1.55;0.70;;;;;;;27.87;49.48;100033.28;5071180;28;20051;-56
2023/08/05 05:10:30;;;;;;;2.05;1.10;;;;;;;27.87;49.49;100041.44;5071004;28;20044;-56
2023/08/05 05:12:58;;;;;;;1.73;0.77;;;;;;;27.87;49.59;100040.59;5068392;28;20049;-56
2023/08/05 05:15:25;;;;;;;1.70;0.70;;;;;;;27.86;49.21;100039.75;5068033;28;20045;-56
2023/08/05 05:17:53;;;;;;;1.45;0.68;;;;;;;27.87;49.48;100049.59;5071179;28;20051;-59
2023/08/05 05:20:21;;;;;;;1.88;0.93;;;;;;;27.86;49.55;100045.19;5070722;28;20056;-59
2023/08/05 05:22:49;;;;;;;2.15;0.70;;;;;;;27.86;49.13;100047.91;5068998;28;20056;-59
2023/08/05 05:25:16;;;;;;;1.40;0.55;;;;;;;27.86;49.31;100042.47;5070745;28;20511;-58
2023/08/05 05:27:44;;;;;;;1.67;0.80;;;;;;;27.86;49.60;100045.19;5071120;28;20045;-59
2023/08/05 05:30:11;;;;;;;2.00;0.73;;;;;;;27.85;49.50;100047.09;5070515;28;20048;-59
2023/08/05 05:32:38;;;;;;;1.13;0.60;;;;;;;27.86;49.41;100039.75;5068872;28;20049;-59
2023/08/05 05:35:06;;;;;;;2.22;1.08;;;;;;;27.85;49.29;100043.53;5067039;28;20068;-59
2023/08/05 05:37:34;;;;;;;1.92;0.88;;;;;;;27.84;49.15;100039.97;5070613;28;20041;-56
2023/08/05 05:40:01;;;;;;;3.78;0.93;;;;;;;27.84;49.31;100052.75;5070646;28;20048;-56
2023/08/05 05:42:29;;;;;;;1.70;0.75;;;;;;;27.85;49.25;100068.00;5069072;28;20056;-56
2023/08/05 05:44:56;;;;;;;1.83;0.77;;;;;;;27.84;49.30;100067.19;5067023;28;20049;-56
2023/08/05 05:47:24;;;;;;;2.08;1.00;;;;;;;27.84;49.57;100069.06;5070755;28;20044;-59
2023/08/05 05:49:51;;;;;;;1.90;0.90;;;;;;;27.84;49.26;100063.63;5070242;28;20045;-59
2023/08/05 05:52:18;;;;;;;1.75;0.90;;;;;;;27.83;49.69;100070.09;5068557;28;20045;-59
2023/08/05 05:54:46;;;;;;;1.02;0.57;;;;;;;27.83;49.35;100070.09;5069615;28;20040;-59
2023/08/05 05:57:13;;;;;;;2.90;1.20;;;;;;;27.82;49.60;100063.81;5070165;28;20044;-56
2023/08/05 05:59:42;;;;;;;1.75;0.70;;;;;;;27.84;49.58;100071.78;5070303;28;20047;-56
2023/08/05 06:02:15;;;;;;;1.55;0.65;;;;;;;27.82;49.70;100074.69;5068383;28;20045;-56
2023/08/05 06:04:44;;;;;;;1.50;0.65;;;;;;;27.82;49.73;100069.25;5066473;28;20049;-56
2023/08/05 06:07:12;;;;;;;1.95;0.70;;;;;;;27.83;49.68;100076.41;5069863;28;20059;-56
2023/08/05 06:09:39;;;;;;;1.55;0.70;;;;;;;27.81;49.46;100073.03;5069145;28;20075;-56
2023/08/05 06:12:10;;;;;;;1.60;0.80;;;;;;;27.82;49.71;100080.13;5063430;28;20045;-56
2023/08/05 06:14:38;;;;;;;1.77;0.80;;;;;;;27.81;49.45;100078.47;5069905;28;20044;-56
2023/08/05 06:17:05;;;;;;;1.92;1.00;;;;;;;27.81;49.70;100083.06;5069480;28;20043;-56
2023/08/05 06:19:32;;;;;;;1.65;0.93;;;;;;;27.80;49.62;100076.78;5068023;28;20052;-56
2023/08/05 06:22:00;;;;;;;2.08;0.88;;;;;;;27.81;49.26;100088.50;5067642;28;20051;-56
2023/08/05 06:24:27;;;;;;;1.42;0.80;;;;;;;27.81;49.58;100088.50;5066886;28;20045;-56
2023/08/05 06:26:54;;;;;;;2.20;1.00;;;;;;;27.80;49.81;100078.69;5069739;28;20052;-56
2023/08/05 06:29:22;;;;;;;2.40;1.00;;;;;;;27.80;49.80;100086.84;5068282;28;20052;-56
2023/08/05 06:31:49;;;;;;;2.10;0.90;;;;;;;27.80;49.65;100098.56;5067500;28;20051;-56
2023/08/05 06:34:20;;;;;;;2.63;1.20;;;;;;;27.79;49.61;100102.31;5067389;28;20057;-56
2023/08/05 06:36:47;;;;;;;1.58;0.60;;;;;;;27.80;49.84;100108.59;5069598;28;20051;-58
2023/08/05 06:39:15;;;;;;;2.35;0.88;;;;;;;27.79;49.69;100107.78;5068711;28;20041;-54
2023/08/05 06:41:42;;;;;;;1.52;0.75;;;;;;;27.80;49.36;100119.47;5066961;28;20044;-56
2023/08/05 06:44:09;;;;;;;1.40;0.68;;;;;;;27.80;49.66;100114.03;5067861;28;20405;-56
2023/08/05 06:46:39;;;;;;;1.80;0.88;;;;;;;27.79;49.85;100117.78;5069183;28;20043;-56
2023/08/05 06:49:08;;;;;;;2.08;1.00;;;;;;;27.78;49.58;100130.53;5066648;28;20049;-59
2023/08/05 06:51:35;;;;;;;1.58;0.70;;;;;;;27.80;49.76;100133.09;5066305;28;20053;-59
2023/08/05 06:54:03;;;;;;;2.13;0.75;;;;;;;27.79;49.78;100144.97;5068024;28;20064;-59
2023/08/05 06:56:30;;;;;;;2.00;0.85;;;;;;;27.79;49.44;100139.53;5068991;28;20408;-59
2023/08/05 06:58:57;;;;;;;2.00;0.90;;;;;;;27.79;49.53;100144.97;5067688;28;20040;-59
2023/08/05 07:01:25;;;;;;;1.48;0.63;;;;;;;27.78;49.60;100148.75;5064958;28;20748;-59
2023/08/05 07:03:53;;;;;;;2.08;1.02;;;;;;;27.77;49.99;100158.78;5067912;28;20055;-59
2023/08/05 07:06:20;;;;;;;1.63;0.68;;;;;;;27.78;49.75;100171.34;5068719;28;20045;-59
2023/08/05 07:08:47;;;;;;;1.85;0.60;;;;;;;27.77;49.75;100164.25;5067383;28;20044;-56
2023/08/05 07:11:15;;;;;;;2.17;1.10;;;;;;;27.79;49.54;100166.75;5069567;28;20063;-56
2023/08/05 07:13:42;;;;;;;1.60;0.63;;;;;;;27.78;49.49;100168.63;5067555;28;20412;-56
2023/08/05 07:16:09;;;;;;;1.40;0.70;;;;;;;27.77;49.64;100174.28;5068673;28;20124;-56
2023/08/05 07:18:37;;;;;;;1.25;0.70;;;;;;;27.76;49.63;100173.44;5067233;28;20056;-59
2023/08/05 07:21:04;;;;;;;1.73;0.95;;;;;;;27.77;49.66;100179.72;5066029;28;20059;-59
2023/08/05 07:23:32;;;;;;;1.65;0.70;;;;;;;27.75;49.97;100179.06;5067383;28;20056;-59
2023/08/05 07:26:00;;;;;;;1.90;0.68;;;;;;;27.76;49.55;100175.34;5068498;28;20044;-59
2023/08/05 07:28:28;;;;;;;1.45;0.60;;;;;;;27.76;49.57;100178.06;5067110;28;20044;-59
2023/08/05 07:31:07;;;;;;;1.60;0.70;;;;;;;27.76;49.57;100184.31;5064754;28;20523;-59
2023/08/05 07:33:34;;;;;;;2.53;0.93;;;;;;;27.75;49.86;100182.66;5072096;28;20511;-59
2023/08/05 07:36:09;;;;;;;1.45;0.60;;;;;;;27.77;49.49;100196.03;5068240;28;20504;-59
2023/08/05 07:38:42;;;;;;;1.65;0.82;;;;;;;27.76;49.98;100191.66;5066610;28;20052;-56
2023/08/05 07:41:15;;;;;;;2.40;0.90;;;;;;;27.77;49.66;100196.03;5066741;28;20041;-56
2023/08/05 07:43:43;;;;;;;1.35;0.60;;;;;;;27.76;49.78;100191.66;5068383;28;20064;-56
2023/08/05 07:46:13;;;;;;;1.23;0.60;;;;;;;27.77;49.78;100196.03;5066782;28;20051;-56
2023/08/05 07:48:42;;;;;;;1.73;0.80;;;;;;;27.76;49.70;100194.38;5065039;28;20045;-59
2023/08/05 07:51:09;;;;;;;1.92;0.80;;;;;;;27.76;49.82;100195.19;5067548;28;20492;-59
2023/08/05 07:53:37;;;;;;;2.30;0.90;;;;;;;27.75;49.91;100185.38;5067963;28;20060;-59
2023/08/05 07:56:11;;;;;;;1.30;0.50;;;;;;;27.76;49.74;100194.38;5061948;28;20430;-59
2023/08/05 07:58:42;;;;;;;1.35;0.60;;;;;;;27.75;49.79;100195.38;5064431;28;20053;-56
2023/08/05 08:01:11;;;;;;;2.53;0.80;;;;;;;27.75;50.14;100189.94;5068424;28;20045;-56
2023/08/05 08:03:41;;;;;;;1.70;0.80;;;;;;;27.75;50.00;100192.66;5067854;28;20052;-56
2023/08/05 08:06:14;;;;;;;2.28;0.90;;;;;;;27.75;49.95;100189.94;5065952;28;20071;-56
2023/08/05 08:08:43;;;;;;;1.73;0.90;;;;;;;27.75;50.05;100193.53;5065999;28;20045;-59
2023/08/05 08:11:11;;;;;;;1.55;0.80;;;;;;;27.75;50.21;100195.38;5067783;28;20484;-59
2023/08/05 08:13:38;;;;;;;1.45;0.60;;;;;;;27.75;50.18;100192.66;5066279;28;20040;-59
2023/08/05 08:16:06;;;;;;;1.42;0.85;;;;;;;27.75;50.12;100192.66;5065298;28;20048;-59
2023/08/05 08:18:34;;;;;;;1.45;0.68;;;;;;;27.74;50.12;100189.13;5066452;28;20045;-59
2023/08/05 08:21:02;;;;;;;1.55;0.75;;;;;;;27.73;49.91;100189.28;5067739;28;20044;-59
2023/08/05 08:23:29;;;;;;;1.50;0.75;;;;;;;27.74;49.97;100191.84;5066273;28;20051;-59
2023/08/05 08:25:58;;;;;;;1.58;0.60;;;;;;;27.73;50.18;100192.88;5066598;28;20045;-59
2023/08/05 08:28:26;;;;;;;1.98;0.73;;;;;;;27.74;50.23;100186.41;5066318;28;20041;-56
2023/08/05 08:30:56;;;;;;;1.88;0.70;;;;;;;27.74;50.11;100182.84;5067654;28;20404;-55
2023/08/05 08:33:25;;;;;;;2.65;0.70;;;;;;;27.73;50.00;100182.00;5065970;28;20048;-56
2023/08/05 08:35:53;;;;;;;1.73;0.65;;;;;;;27.73;50.31;100187.44;5063957;28;20064;-56
2023/08/05 08:38:25;;;;;;;1.58;0.70;;;;;;;27.73;50.09;100195.59;5067458;28;20045;-56
2023/08/05 08:40:57;;;;;;;1.95;1.08;;;;;;;27.74;50.08;100204.59;5068577;28;20063;-56
2023/08/05 08:43:26;;;;;;;1.20;0.50;;;;;;;27.74;50.31;100191.00;5070160;28;20060;-55
2023/08/05 08:45:54;;;;;;;1.58;0.65;;;;;;;27.74;50.44;100194.56;5068489;28;20052;-55
2023/08/05 08:48:24;;;;;;;1.60;0.60;;;;;;;27.73;50.45;100189.28;5071167;28;20052;-56
2023/08/05 08:50:53;;;;;;;2.35;1.00;;;;;;;27.74;50.08;100188.28;5070757;28;20049;-56
2023/08/05 08:53:21;;;;;;;1.42;0.70;;;;;;;27.72;50.08;100193.91;5069591;28;20048;-56
2023/08/05 08:55:49;;;;;;;1.17;0.60;;;;;;;27.72;50.53;100191.19;5068845;28;20048;-56
2023/08/05 08:58:16;;;;;;;1.88;0.80;;;;;;;27.72;50.31;100201.22;5071044;28;20040;-56
2023/08/05 09:00:45;;;;;;;1.45;0.75;;;;;;;27.72;50.18;100198.50;5070321;28;20059;-56
2023/08/05 09:03:13;;;;;;;2.10;0.93;;;;;;;27.72;50.27;100183.03;5069577;28;20492;-56
2023/08/05 09:05:45;;;;;;;1.77;0.70;;;;;;;27.72;50.57;100199.34;5068804;28;20052;-56
2023/08/05 09:08:13;;;;;;;2.30;1.00;;;;;;;27.72;50.46;100202.06;5071349;28;20043;-56
2023/08/05 09:10:43;;;;;;;1.38;0.65;;;;;;;27.72;50.41;100207.50;5072913;28;20047;-55
2023/08/05 09:13:11;;;;;;;2.10;0.90;;;;;;;27.72;50.41;100203.94;5068309;28;20048;-56
2023/08/05 09:15:39;;;;;;;2.17;1.00;;;;;;;27.72;50.42;100203.94;5069799;28;20045;-55
2023/08/05 09:18:08;;;;;;;0.95;0.50;;;;;;;27.71;50.37;100208.53;5071049;28;20047;-59
2023/08/05 09:20:36;;;;;;;1.65;0.75;;;;;;;27.72;50.33;100215.66;5069419;28;20382;-56
2023/08/05 09:23:07;;;;;;;1.23;0.63;;;;;;;27.72;50.24;100204.78;5067530;28;20052;-55
2023/08/05 09:25:41;;;;;;;1.42;0.70;;;;;;;27.72;50.49;100212.09;5070433;28;20047;-55
2023/08/05 09:28:09;;;;;;;1.63;0.70;;;;;;;27.70;50.15;100201.41;5069482;28;20488;-56
2023/08/05 09:30:37;;;;;;;1.27;0.65;;;;;;;27.71;50.17;100203.09;5069021;28;20049;-56
2023/08/05 09:33:05;;;;;;;1.50;0.70;;;;;;;27.71;50.49;100196.81;5067208;28;20492;-55
2023/08/05 09:35:32;;;;;;;1.00;0.50;;;;;;;27.70;50.44;100197.84;5070556;28;20049;-56
2023/08/05 09:38:01;;;;;;;1.50;0.70;;;;;;;27.70;50.21;100201.41;5070566;28;20040;-56
2023/08/05 09:40:36;;;;;;;1.70;0.82;;;;;;;27.71;50.18;100199.53;5061955;28;20063;-55
2023/08/05 09:43:07;;;;;;;1.70;0.65;;;;;;;27.71;50.38;100196.81;5068462;28;20048;-56
2023/08/05 09:45:35;;;;;;;1.75;0.70;;;;;;;27.71;50.29;100204.97;5070826;28;20036;-55
2023/08/05 09:48:06;;;;;;;1.83;0.82;;;;;;;27.70;50.27;100198.69;5068979;28;20055;-59
2023/08/05 09:50:38;;;;;;;2.72;1.42;;;;;;;27.69;50.43;100190.75;5067586;28;20041;-59
2023/08/05 09:53:08;;;;;;;1.30;0.50;;;;;;;27.70;50.50;100195.13;5068687;28;20048;-59
2023/08/05 09:55:38;;;;;;;1.23;0.63;;;;;;;27.70;50.44;100181.53;5070413;28;20056;-59
2023/08/05 09:58:10;;;;;;;1.52;0.65;;;;;;;27.70;50.41;100189.69;5068604;28;20036;-56
2023/08/05 10:00:40;;;;;;;1.25;0.55;;;;;;;27.70;49.98;100193.25;5066818;28;20041;-56
2023/08/05 10:03:13;;;;;;;1.42;0.60;;;;;;;27.69;50.44;100193.47;5070135;28;20048;-56
2023/08/05 10:05:44;;;;;;;1.45;0.73;;;;;;;27.69;50.30;100193.47;5068735;28;20488;-56
2023/08/05 10:08:19;;;;;;;1.85;0.80;;;;;;;27.69;50.12;100198.91;5067822;28;20059;-59
2023/08/05 10:10:48;;;;;;;1.05;0.40;;;;;;;27.68;50.19;100208.09;5069550;28;20496;-59
2023/08/05 10:13:20;;;;;;;1.35;0.55;;;;;;;27.69;50.15;100213.34;5070152;28;20055;-59
2023/08/05 10:15:51;;;;;;;1.55;0.70;;;;;;;27.67;50.09;100210.00;5068367;28;20052;-59
2023/08/05 10:18:18;;;;;;;2.00;0.60;;;;;;;27.67;50.36;100215.44;5065621;28;20111;-58
2023/08/05 10:20:52;;;;;;;1.70;0.70;;;;;;;27.67;50.31;100217.28;5069876;28;20542;-58
2023/08/05 10:23:24;;;;;;;1.40;0.60;;;;;;;27.67;50.25;100220.00;5068799;28;20114;-59
2023/08/05 10:25:58;;;;;;;1.40;0.70;;;;;;;27.68;50.23;100225.25;5070025;28;20052;-59
2023/08/05 10:28:26;;;;;;;1.10;0.50;;;;;;;27.67;50.47;100225.44;5068916;28;20049;-59
2023/08/05 10:30:56;;;;;;;1.60;0.70;;;;;;;27.67;50.42;100222.72;5069729;28;20044;-59
2023/08/05 10:33:27;;;;;;;1.75;0.63;;;;;;;27.66;50.50;100229.22;5068268;28;20053;-59
2023/08/05 10:36:07;;;;;;;1.17;0.50;;;;;;;27.66;50.17;100226.50;5065701;28;20056;-59
2023/08/05 10:38:41;;;;;;;1.42;0.60;;;;;;;27.66;50.27;100237.38;5066323;28;20049;-59
2023/08/05 10:41:10;;;;;;;1.05;0.47;;;;;;;27.66;50.45;100235.47;5067980;28;20381;-59
2023/08/05 10:43:40;;;;;;;1.75;0.90;;;;;;;27.66;50.32;100229.22;5066768;28;20044;-59
2023/08/05 10:46:07;;;;;;;1.70;0.70;;;;;;;27.66;50.04;100234.66;5068376;28;20414;-59
2023/08/05 10:48:48;;;;;;;1.00;0.50;;;;;;;27.64;50.33;100232.16;5069190;28;20044;-59
2023/08/05 10:51:22;;;;;;;1.27;0.50;;;;;;;27.66;50.40;100229.22;5067629;28;20044;-59
2023/08/05 10:53:55;;;;;;;1.42;0.45;;;;;;;27.65;50.02;100222.09;5066851;28;20053;-58
2023/08/05 10:56:30;;;;;;;1.10;0.60;;;;;;;27.65;49.96;100216.66;5066606;28;20044;-59
2023/08/05 10:59:01;;;;;;;1.45;0.70;;;;;;;27.64;50.07;100215.81;5067753;28;20049;-59
2023/08/05 11:01:57;;;;;;;1.30;0.63;;;;;;;27.65;50.11;100227.53;5060976;28;20045;-59
2023/08/05 11:04:31;;;;;;;1.13;0.57;;;;;;;27.64;50.17;100234.03;5067487;28;20488;-58
2023/08/05 11:07:00;;;;;;;1.50;0.63;;;;;;;27.62;50.10;100234.22;5067370;28;20049;-58
2023/08/05 11:09:35;;;;;;;1.13;0.50;;;;;;;27.64;50.10;100236.75;5065849;28;20041;-59
2023/08/05 11:12:02;;;;;;;1.30;0.65;;;;;;;27.63;50.31;100235.91;5069336;28;20044;-59
2023/08/05 11:14:31;;;;;;;1.58;0.70;;;;;;;27.63;50.04;100235.03;5067618;28;20408;-58
2023/08/05 11:17:07;;;;;;;1.38;0.65;;;;;;;27.61;50.27;100219.78;5061628;28;20045;-58
2023/08/05 11:19:58;;;;;;;1.15;0.55;;;;;;;27.62;50.10;100220.63;5069030;28;20055;-59
2023/08/05 11:22:27;;;;;;;1.10;0.60;;;;;;;27.62;50.03;100220.63;5067246;28;20488;-59
2023/08/05 11:24:56;;;;;;;1.23;0.60;;;;;;;27.63;50.27;100222.31;5066211;28;20056;-59
2023/08/05 11:27:36;;;;;;;1.35;0.60;;;;;;;27.61;50.03;100219.78;5067204;28;20052;-56
2023/08/05 11:30:19;;;;;;;1.02;0.50;;;;;;;27.61;50.50;100210.78;5068601;28;20048;-56
2023/08/05 11:32:58;;;;;;;1.42;0.55;;;;;;;27.60;50.47;100209.13;5066111;28;20040;-55